Time;durP1;ratioP1;P1;durP2;ratioP2;P2;SDS_P1;SDS_P2;PMS_P1;PMS_P2;Temp;Humidity;BMP_temperature;BMP_pressure;BME280_temperature;BME280_humidity;BME280_pressure;Samples;Min_cycle;Max_cycle;Signal;HPM_P1;HPM_P2
2021/06/24 00:01:41;;;;;;;23.05;11.80;;;17.80;96.90;;;;;;5013280;28;20018;-70
2021/06/24 00:04:06;;;;;;;26.77;12.57;;;17.80;96.90;;;;;;5010818;28;20478;-67
2021/06/24 00:06:32;;;;;;;33.92;12.93;;;17.70;97.00;;;;;;5011644;28;20033;-67
2021/06/24 00:08:58;;;;;;;24.55;11.35;;;17.60;97.20;;;;;;5019794;28;20026;-68
2021/06/24 00:11:24;;;;;;;26.17;12.20;;;17.60;97.30;;;;;;5031001;28;20072;-67
2021/06/24 00:13:49;;;;;;;28.67;12.35;;;17.60;97.40;;;;;;5018285;28;20474;-70
2021/06/24 00:16:15;;;;;;;23.50;11.85;;;17.50;97.30;;;;;;5007812;28;20101;-67
2021/06/24 00:18:41;;;;;;;27.92;12.38;;;17.40;97.60;;;;;;4991880;28;20034;-67
2021/06/24 00:21:07;;;;;;;24.20;11.45;;;17.40;97.80;;;;;;5017595;28;20052;-67
2021/06/24 00:23:33;;;;;;;26.50;13.00;;;17.50;98.00;;;;;;5025077;28;20542;-67
2021/06/24 00:25:58;;;;;;;26.30;12.55;;;17.50;98.10;;;;;;5012964;28;20045;-68
2021/06/24 00:28:27;;;;;;;28.88;12.27;;;17.50;98.20;;;;;;4998778;28;20026;-68
2021/06/24 00:30:55;;;;;;;24.08;11.57;;;17.60;98.20;;;;;;5011688;28;20406;-68
2021/06/24 00:33:21;;;;;;;28.15;12.65;;;17.60;98.30;;;;;;5011360;28;20030;-68
2021/06/24 00:35:47;;;;;;;26.38;11.38;;;17.60;98.30;;;;;;5007932;28;20021;-68
2021/06/24 00:38:13;;;;;;;28.85;12.35;;;17.60;98.40;;;;;;4996602;28;20030;-68
2021/06/24 00:40:40;;;;;;;32.85;12.70;;;17.60;98.20;;;;;;4991317;28;20437;-67
2021/06/24 00:43:08;;;;;;;33.20;12.82;;;17.50;98.00;;;;;;4993989;28;20034;-68
2021/06/24 00:45:34;;;;;;;27.73;12.60;;;17.40;98.10;;;;;;5010264;28;20109;-68
2021/06/24 00:48:00;;;;;;;29.00;12.27;;;17.30;98.20;;;;;;5005258;28;20038;-68
2021/06/24 00:50:26;;;;;;;26.50;11.98;;;17.30;98.30;;;;;;4995757;28;20030;-67
2021/06/24 00:52:51;;;;;;;26.73;11.15;;;17.20;98.30;;;;;;5030728;28;20539;-67
2021/06/24 00:55:17;;;;;;;26.15;10.57;;;17.20;98.40;;;;;;5012365;28;20375;-68
2021/06/24 00:57:44;;;;;;;18.92;9.40;;;17.10;98.50;;;;;;5025628;28;20032;-68
2021/06/24 01:00:10;;;;;;;23.15;10.30;;;17.10;98.40;;;;;;5031002;28;20025;-67
2021/06/24 01:02:38;;;;;;;20.58;9.77;;;17.00;98.60;;;;;;5029674;28;20034;-67
2021/06/24 01:05:04;;;;;;;18.95;9.70;;;17.00;98.60;;;;;;5002245;28;20044;-68
2021/06/24 01:07:29;;;;;;;17.08;8.93;;;17.00;98.70;;;;;;4991474;28;20099;-68
2021/06/24 01:09:55;;;;;;;15.15;9.00;;;16.90;98.60;;;;;;5024348;28;20490;-69
2021/06/24 01:12:21;;;;;;;15.45;8.45;;;16.90;98.80;;;;;;5028625;28;20030;-67
2021/06/24 01:14:49;;;;;;;14.52;7.72;;;16.80;98.80;;;;;;4990180;28;20028;-67
2021/06/24 01:17:15;;;;;;;14.63;7.85;;;16.80;98.80;;;;;;5021148;28;20021;-72
2021/06/24 01:19:41;;;;;;;11.40;6.88;;;16.80;98.80;;;;;;5018869;28;20032;-66
2021/06/24 01:22:08;;;;;;;11.05;6.82;;;16.80;98.80;;;;;;5010017;28;20026;-67
2021/06/24 01:24:33;;;;;;;12.45;6.22;;;16.70;98.90;;;;;;4999056;28;20092;-68
2021/06/24 01:26:59;;;;;;;8.95;5.40;;;16.70;98.90;;;;;;5004282;28;20069;-70
2021/06/24 01:29:25;;;;;;;6.25;4.25;;;16.60;98.80;;;;;;5016952;28;20728;-69
2021/06/24 01:31:51;;;;;;;5.32;3.38;;;16.60;98.80;;;;;;5010652;28;20022;-67
2021/06/24 01:34:16;;;;;;;3.30;2.80;;;16.50;98.80;;;;;;5009527;28;20033;-67
2021/06/24 01:36:42;;;;;;;3.03;2.70;;;16.40;98.70;;;;;;5010005;28;20112;-68
2021/06/24 01:39:12;;;;;;;4.18;2.65;;;16.30;98.60;;;;;;4991070;28;20027;-68
2021/06/24 01:41:38;;;;;;;4.05;2.53;;;16.20;98.80;;;;;;5012163;28;20556;-67
2021/06/24 01:44:04;;;;;;;3.88;2.50;;;16.10;99.00;;;;;;4991772;28;20030;-70
2021/06/24 01:46:30;;;;;;;5.15;2.80;;;16.10;98.90;;;;;;5005758;28;20113;-67
2021/06/24 01:48:56;;;;;;;3.75;2.90;;;16.00;98.90;;;;;;4991046;28;20045;-68
2021/06/24 01:51:22;;;;;;;4.43;2.70;;;16.00;98.90;;;;;;4990759;28;20080;-67
2021/06/24 01:53:49;;;;;;;3.72;3.10;;;16.00;99.00;;;;;;4993283;28;20022;-74
2021/06/24 01:56:14;;;;;;;4.13;3.45;;;16.10;99.20;;;;;;4988411;28;20053;-69
2021/06/24 01:58:40;;;;;;;4.88;3.15;;;16.10;99.10;;;;;;5008310;28;20061;-73
2021/06/24 02:01:06;;;;;;;9.00;3.20;;;16.10;99.00;;;;;;5022251;28;20075;-69
2021/06/24 02:03:37;;;;;;;7.05;3.20;;;16.10;99.10;;;;;;5013925;28;20361;-69
2021/06/24 02:06:04;;;;;;;5.43;3.60;;;16.10;99.10;;;;;;5012567;28;20037;-70
2021/06/24 02:08:31;;;;;;;6.60;3.13;;;16.10;99.00;;;;;;4998446;28;20152;-67
2021/06/24 02:10:58;;;;;;;3.42;3.13;;;16.10;99.00;;;;;;4977062;28;20139;-68
2021/06/24 02:16:17;;;;;;;3.38;2.92;;;16.10;99.10;;;;;;5811906;22;20048;-70
2021/06/24 02:18:44;;;;;;;5.28;3.33;;;16.00;99.10;;;;;;5022319;28;20060;-69
2021/06/24 02:21:09;;;;;;;6.10;3.40;;;16.00;99.10;;;;;;5026942;28;20061;-70
2021/06/24 02:23:35;;;;;;;5.40;3.50;;;16.00;99.10;;;;;;5020524;28;20051;-69
2021/06/24 02:26:00;;;;;;;5.13;3.47;;;16.00;99.00;;;;;;5020080;28;20109;-70
2021/06/24 02:28:26;;;;;;;4.40;2.88;;;16.00;99.20;;;;;;5045208;28;20457;-69
2021/06/24 02:30:52;;;;;;;4.25;3.33;;;16.00;99.20;;;;;;5045597;28;20354;-67
2021/06/24 02:33:19;;;;;;;6.22;3.35;;;16.00;99.30;;;;;;5042410;28;20029;-67
2021/06/24 02:35:47;;;;;;;4.45;3.42;;;16.00;99.30;;;;;;5032869;28;20029;-67
2021/06/24 02:38:13;;;;;;;5.93;3.30;;;16.00;99.40;;;;;;5035620;28;20442;-68
2021/06/24 02:40:39;;;;;;;6.13;3.38;;;16.00;99.40;;;;;;5053491;28;20477;-69
2021/06/24 02:43:05;;;;;;;5.90;3.45;;;16.00;99.50;;;;;;5053511;28;20116;-72
2021/06/24 02:45:31;;;;;;;5.07;3.13;;;16.00;99.60;;;;;;5047869;28;20075;-67
2021/06/24 02:47:57;;;;;;;10.05;4.07;;;16.10;99.70;;;;;;5039668;28;20768;-68
2021/06/24 02:50:23;;;;;;;5.68;3.70;;;16.10;99.60;;;;;;5039180;28;20047;-67
2021/06/24 02:52:49;;;;;;;4.70;3.00;;;16.00;99.60;;;;;;5042469;28;20032;-68
2021/06/24 02:55:15;;;;;;;5.38;3.22;;;16.00;99.40;;;;;;5052463;28;20052;-67
2021/06/24 02:57:41;;;;;;;5.47;3.97;;;15.90;99.40;;;;;;5035234;28;20079;-67
2021/06/24 03:00:08;;;;;;;4.63;3.45;;;15.90;99.50;;;;;;5053137;28;20021;-67
2021/06/24 03:02:34;;;;;;;5.18;3.47;;;15.90;99.50;;;;;;5052797;28;20022;-68
2021/06/24 03:04:59;;;;;;;3.33;3.00;;;15.90;99.60;;;;;;5052156;28;20042;-69
2021/06/24 03:07:25;;;;;;;3.90;3.30;;;15.90;99.80;;;;;;5053176;28;20108;-67
2021/06/24 03:09:51;;;;;;;6.63;3.90;;;16.00;99.90;;;;;;5039525;28;20056;-67
2021/06/24 03:12:16;;;;;;;4.28;3.80;;;16.00;99.90;;;;;;5032952;28;20041;-67
2021/06/24 03:14:42;;;;;;;4.97;3.47;;;16.00;99.90;;;;;;5051028;28;20493;-67
2021/06/24 03:17:08;;;;;;;4.72;4.03;;;16.00;99.90;;;;;;5044338;28;20037;-70
2021/06/24 03:19:33;;;;;;;6.68;4.18;;;16.10;99.90;;;;;;5038716;28;20056;-67
2021/06/24 03:21:59;;;;;;;5.60;4.28;;;16.10;99.90;;;;;;5042687;28;20025;-67
2021/06/24 03:24:24;;;;;;;7.15;3.72;;;16.10;99.90;;;;;;5038593;28;20045;-67
2021/06/24 03:26:50;;;;;;;5.55;4.15;;;16.10;99.90;;;;;;5044507;28;20027;-71
2021/06/24 03:29:16;;;;;;;5.28;3.70;;;16.10;99.90;;;;;;5052794;28;20025;-67
2021/06/24 03:31:42;;;;;;;4.50;3.75;;;16.10;99.90;;;;;;5052229;28;20477;-67
2021/06/24 03:34:07;;;;;;;5.38;3.42;;;16.10;99.90;;;;;;5037045;28;20105;-68
2021/06/24 03:36:33;;;;;;;4.07;3.30;;;16.10;99.90;;;;;;5035699;28;20029;-67
2021/06/24 03:38:59;;;;;;;5.38;3.90;;;16.10;99.90;;;;;;5034813;28;20079;-67
2021/06/24 03:41:25;;;;;;;4.25;3.67;;;16.20;99.90;;;;;;5034660;28;20436;-72
2021/06/24 03:43:53;;;;;;;7.38;3.42;;;16.20;99.90;;;;;;5052586;28;20079;-67
2021/06/24 03:46:19;;;;;;;5.32;3.92;;;16.10;99.90;;;;;;5042528;28;20026;-74
2021/06/24 03:48:44;;;;;;;6.15;3.50;;;16.10;99.90;;;;;;5046715;28;20059;-68
2021/06/24 03:51:10;;;;;;;4.38;3.72;;;16.10;99.90;;;;;;5033707;28;20055;-68
2021/06/24 03:53:35;;;;;;;4.72;3.65;;;16.10;99.90;;;;;;5047856;28;20025;-68
2021/06/24 03:56:01;;;;;;;6.32;4.32;;;16.10;99.90;;;;;;5020346;28;20021;-69
2021/06/24 03:58:27;;;;;;;6.13;4.40;;;16.10;99.90;;;;;;5051659;28;20029;-71
2021/06/24 04:00:53;;;;;;;5.50;4.85;;;16.10;99.90;;;;;;5045165;28;20444;-67
2021/06/24 04:03:19;;;;;;;8.02;4.63;;;16.10;99.90;;;;;;5034367;28;20029;-68
2021/06/24 04:05:44;;;;;;;6.80;4.35;;;16.10;99.90;;;;;;5041627;28;20353;-68
2021/06/24 04:08:10;;;;;;;6.68;4.15;;;16.10;99.90;;;;;;5042040;28;20017;-68
2021/06/24 04:10:37;;;;;;;7.70;4.53;;;16.20;99.90;;;;;;5052305;28;20021;-69
2021/06/24 04:13:04;;;;;;;7.65;4.65;;;16.10;99.90;;;;;;5051963;28;20048;-69
2021/06/24 04:15:29;;;;;;;7.97;4.20;;;16.10;99.90;;;;;;5014872;28;20028;-72
2021/06/24 04:17:56;;;;;;;6.90;4.38;;;16.10;99.90;;;;;;5041702;28;20381;-68
2021/06/24 04:20:22;;;;;;;6.45;4.25;;;16.20;99.90;;;;;;5050056;28;20473;-71
2021/06/24 04:22:48;;;;;;;7.25;4.50;;;16.20;99.90;;;;;;5041598;28;20493;-73
2021/06/24 04:25:15;;;;;;;8.57;4.82;;;16.30;99.90;;;;;;5034914;28;20485;-70
2021/06/24 04:27:41;;;;;;;7.93;4.63;;;16.30;99.90;;;;;;5034717;28;20039;-68
2021/06/24 04:30:09;;;;;;;9.70;4.72;;;16.30;99.90;;;;;;5035074;28;20026;-69
2021/06/24 04:32:35;;;;;;;7.05;4.90;;;16.30;99.90;;;;;;5050396;28;20029;-69
2021/06/24 04:35:00;;;;;;;6.30;4.72;;;16.30;99.90;;;;;;5033173;28;20025;-69
2021/06/24 04:37:26;;;;;;;8.00;4.53;;;16.40;99.90;;;;;;5039125;28;20029;-72
2021/06/24 04:39:52;;;;;;;6.63;4.72;;;16.40;99.90;;;;;;5051850;28;20428;-68
2021/06/24 04:42:17;;;;;;;7.47;5.20;;;16.40;99.90;;;;;;5051283;28;20021;-71
2021/06/24 04:44:43;;;;;;;7.22;4.82;;;16.40;99.90;;;;;;5032710;28;20108;-71
2021/06/24 04:47:09;;;;;;;8.65;4.97;;;16.40;99.90;;;;;;5043235;28;20030;-71
2021/06/24 04:49:35;;;;;;;8.13;5.15;;;16.40;99.90;;;;;;5036147;28;20560;-71
2021/06/24 04:52:00;;;;;;;8.85;5.40;;;16.40;99.90;;;;;;5029076;28;20167;-73
2021/06/24 04:54:26;;;;;;;8.43;5.00;;;16.40;99.90;;;;;;5047201;28;20078;-70
2021/06/24 04:56:52;;;;;;;8.20;5.35;;;16.50;99.90;;;;;;5046794;28;20169;-69
2021/06/24 04:59:17;;;;;;;8.55;5.28;;;16.50;99.90;;;;;;5041485;28;20036;-69
2021/06/24 05:01:43;;;;;;;8.27;5.30;;;16.50;99.90;;;;;;5033653;28;20028;-70
2021/06/24 05:04:08;;;;;;;6.03;4.78;;;16.60;99.90;;;;;;5044469;28;20393;-71
2021/06/24 05:06:35;;;;;;;6.28;4.60;;;16.60;99.90;;;;;;5030545;28;20013;-68
2021/06/24 05:09:01;;;;;;;6.03;4.47;;;16.70;99.90;;;;;;5013627;28;20029;-68
2021/06/24 05:11:27;;;;;;;6.38;4.45;;;16.80;99.90;;;;;;5021789;28;20017;-70
2021/06/24 05:13:52;;;;;;;5.43;4.38;;;16.90;99.90;;;;;;5050705;28;20032;-68
2021/06/24 05:16:18;;;;;;;4.72;4.32;;;17.00;99.90;;;;;;5050160;28;20021;-73
2021/06/24 05:18:44;;;;;;;6.32;3.80;;;17.10;99.90;;;;;;5050955;28;20459;-68
2021/06/24 05:21:10;;;;;;;4.93;3.88;;;17.10;99.90;;;;;;5051129;28;20485;-69
2021/06/24 05:23:36;;;;;;;4.50;4.05;;;17.20;99.90;;;;;;5051178;28;20082;-69
2021/06/24 05:26:02;;;;;;;4.57;3.60;;;17.30;99.90;;;;;;5047233;28;20328;-69
2021/06/24 05:28:28;;;;;;;5.10;3.33;;;17.30;99.90;;;;;;5048216;28;20481;-69
2021/06/24 05:30:53;;;;;;;3.75;3.08;;;17.40;99.90;;;;;;5030991;28;20390;-74
2021/06/24 05:33:19;;;;;;;3.10;2.80;;;17.50;99.90;;;;;;5030941;28;20036;-68
2021/06/24 05:35:48;;;;;;;6.20;2.90;;;17.60;99.90;;;;;;5030369;28;20021;-68
2021/06/24 05:38:17;;;;;;;3.50;3.20;;;17.60;99.90;;;;;;5031074;28;20105;-73
2021/06/24 05:40:45;;;;;;;4.07;2.30;;;17.70;99.90;;;;;;5040378;28;20032;-68
2021/06/24 05:43:11;;;;;;;2.70;2.50;;;17.80;99.90;;;;;;5050728;28;20151;-69
2021/06/24 05:45:37;;;;;;;2.80;2.60;;;17.80;99.90;;;;;;5049955;28;20096;-69
2021/06/24 05:48:03;;;;;;;3.00;2.80;;;18.00;99.90;;;;;;5039821;28;20029;-68
2021/06/24 05:50:29;;;;;;;3.95;2.90;;;18.00;99.90;;;;;;5031709;28;20032;-69
2021/06/24 05:52:55;;;;;;;2.80;2.50;;;18.00;99.90;;;;;;5030835;28;20033;-69
2021/06/24 05:58:10;;;;;;;3.35;3.05;;;18.00;99.90;;;;;;5050978;28;20028;-68
2021/06/24 06:00:36;;;;;;;3.72;2.42;;;17.90;99.90;;;;;;5032506;28;20109;-68
2021/06/24 06:03:01;;;;;;;5.22;2.63;;;17.90;99.80;;;;;;5050085;28;20053;-68
2021/06/24 06:05:27;;;;;;;2.40;2.20;;;17.90;99.90;;;;;;5049829;28;20495;-69
2021/06/24 06:07:52;;;;;;;2.20;2.05;;;18.10;99.90;;;;;;5025472;28;20113;-70
2021/06/24 06:10:18;;;;;;;1.88;1.77;;;18.30;99.90;;;;;;5038145;28;20101;-68
2021/06/24 06:12:44;;;;;;;1.75;1.65;;;18.50;99.90;;;;;;5024445;28;20060;-67
2021/06/24 06:15:10;;;;;;;2.63;2.00;;;18.70;99.90;;;;;;5049614;28;20100;-69
2021/06/24 06:17:35;;;;;;;2.58;1.40;;;18.80;99.90;;;;;;5049799;28;20024;-69
2021/06/24 06:20:01;;;;;;;1.77;1.67;;;18.90;99.90;;;;;;5049017;28;20400;-70
2021/06/24 06:22:27;;;;;;;2.35;1.77;;;18.90;99.90;;;;;;5050104;28;20033;-71
2021/06/24 06:24:52;;;;;;;1.40;1.30;;;19.00;99.90;;;;;;5049474;28;20029;-68
2021/06/24 06:27:18;;;;;;;1.50;1.40;;;18.90;99.80;;;;;;5036712;28;20039;-68
2021/06/24 06:29:43;;;;;;;2.55;1.33;;;18.80;99.60;;;;;;5035049;28;20025;-68
2021/06/24 06:32:09;;;;;;;2.88;1.45;;;18.80;99.80;;;;;;5041703;28;20080;-73
2021/06/24 06:34:35;;;;;;;2.10;1.70;;;18.90;99.60;;;;;;5045088;28;20068;-75
2021/06/24 06:37:00;;;;;;;1.60;1.48;;;19.00;99.50;;;;;;5032221;28;20044;-70
2021/06/24 06:39:26;;;;;;;1.70;1.52;;;19.20;99.50;;;;;;5033914;28;20514;-67
2021/06/24 06:41:51;;;;;;;2.33;1.38;;;19.40;99.60;;;;;;5035767;28;20241;-68
2021/06/24 06:44:17;;;;;;;1.83;1.73;;;19.60;99.50;;;;;;5052658;28;20052;-68
2021/06/24 06:46:42;;;;;;;1.60;1.50;;;19.80;99.40;;;;;;5032678;28;20057;-68
2021/06/24 06:49:08;;;;;;;2.10;1.58;;;20.00;99.30;;;;;;5044698;28;20025;-68
2021/06/24 06:51:34;;;;;;;1.13;1.02;;;20.20;99.20;;;;;;5041887;28;20039;-69
2021/06/24 06:53:59;;;;;;;1.75;1.10;;;20.40;99.00;;;;;;5033401;28;20030;-68
2021/06/24 06:56:25;;;;;;;4.63;0.95;;;20.50;98.50;;;;;;5042317;28;20026;-67
2021/06/24 06:58:52;;;;;;;1.08;1.05;;;20.50;98.40;;;;;;5047745;28;20560;-68
2021/06/24 07:01:18;;;;;;;2.25;1.27;;;20.60;98.10;;;;;;5020280;28;20029;-67
2021/06/24 07:03:43;;;;;;;0.98;0.98;;;20.60;98.00;;;;;;5043997;28;20040;-67
2021/06/24 07:06:09;;;;;;;0.90;0.90;;;20.80;97.80;;;;;;5051288;28;20028;-68
2021/06/24 07:08:34;;;;;;;0.85;0.85;;;21.00;97.60;;;;;;5052185;28;20029;-68
2021/06/24 07:11:00;;;;;;;1.25;0.95;;;21.00;97.60;;;;;;5044344;28;20074;-71
2021/06/24 07:13:26;;;;;;;1.30;0.80;;;21.10;97.40;;;;;;5053187;28;20437;-67
2021/06/24 07:15:56;;;;;;;2.58;0.82;;;21.00;97.00;;;;;;5052273;28;20028;-67
2021/06/24 07:18:22;;;;;;;0.70;0.70;;;21.00;97.10;;;;;;5051540;28;20478;-67
2021/06/24 07:20:47;;;;;;;0.63;0.63;;;20.90;96.90;;;;;;5053155;28;20025;-68
2021/06/24 07:23:13;;;;;;;1.50;0.90;;;20.90;96.90;;;;;;5040249;28;20032;-67
2021/06/24 07:25:38;;;;;;;1.08;0.95;;;20.90;97.00;;;;;;5045663;28;20027;-71
2021/06/24 07:28:04;;;;;;;1.00;0.73;;;20.90;96.90;;;;;;5029633;28;20120;-68
2021/06/24 07:30:30;;;;;;;0.82;0.82;;;20.90;96.90;;;;;;5044561;28;20021;-67
2021/06/24 07:32:55;;;;;;;0.80;0.80;;;20.90;97.00;;;;;;5046450;28;20100;-68
2021/06/24 07:35:21;;;;;;;1.40;0.80;;;21.00;96.70;;;;;;5051214;28;20019;-67
2021/06/24 07:37:47;;;;;;;0.75;0.75;;;21.00;96.70;;;;;;5034744;28;20021;-72
2021/06/24 07:40:13;;;;;;;1.55;1.00;;;21.10;96.70;;;;;;5052586;28;20025;-68
2021/06/24 07:42:39;;;;;;;1.10;1.10;;;21.10;96.50;;;;;;5052180;28;20078;-68
2021/06/24 07:45:06;;;;;;;1.10;1.00;;;21.30;96.40;;;;;;5049540;28;20100;-70
2021/06/24 07:47:31;;;;;;;1.05;0.95;;;21.50;96.50;;;;;;5051513;28;20025;-69
2021/06/24 07:49:57;;;;;;;1.67;0.80;;;21.90;96.40;;;;;;5049168;28;20017;-72
2021/06/24 07:52:22;;;;;;;2.15;0.90;;;22.30;96.40;;;;;;5048507;28;20477;-68
2021/06/24 07:54:48;;;;;;;1.45;0.88;;;22.60;96.20;;;;;;5042566;28;20381;-68
2021/06/24 07:57:14;;;;;;;1.02;0.80;;;22.60;95.40;;;;;;5051881;28;20021;-68
2021/06/24 07:59:39;;;;;;;1.20;0.70;;;22.70;95.10;;;;;;5051752;28;20100;-71
2021/06/24 08:02:05;;;;;;;0.95;0.90;;;22.80;95.00;;;;;;5047673;28;20107;-68
2021/06/24 08:04:33;;;;;;;1.48;1.00;;;23.00;95.00;;;;;;5051278;28;20032;-68
2021/06/24 08:06:58;;;;;;;7.10;1.10;;;23.40;95.00;;;;;;5040294;28;20248;-68
2021/06/24 08:09:24;;;;;;;2.05;0.95;;;23.60;95.00;;;;;;5031864;28;20543;-69
2021/06/24 08:11:49;;;;;;;1.17;0.82;;;23.90;94.80;;;;;;5028122;28;20455;-68
2021/06/24 08:14:15;;;;;;;2.33;0.82;;;24.30;94.40;;;;;;5048798;28;20025;-68
2021/06/24 08:16:41;;;;;;;0.60;0.60;;;24.60;94.40;;;;;;5050501;28;20127;-72
2021/06/24 08:19:06;;;;;;;0.77;0.77;;;25.00;93.90;;;;;;5046746;28;20026;-69
2021/06/24 08:21:32;;;;;;;0.88;0.65;;;25.40;92.80;;;;;;5051088;28;20020;-70
2021/06/24 08:23:58;;;;;;;0.60;0.57;;;25.30;92.30;;;;;;5051359;28;20029;-74
2021/06/24 08:26:23;;;;;;;0.40;0.40;;;25.60;91.40;;;;;;5050472;28;20025;-69
2021/06/24 08:28:49;;;;;;;0.75;0.52;;;25.40;91.40;;;;;;5033558;28;20469;-69
2021/06/24 08:31:15;;;;;;;0.60;0.60;;;24.90;91.70;;;;;;5051068;28;20021;-70
2021/06/24 08:33:40;;;;;;;0.52;0.52;;;25.00;91.80;;;;;;5050951;28;20075;-72
2021/06/24 08:36:07;;;;;;;0.70;0.70;;;25.50;92.00;;;;;;5050430;28;20449;-69
2021/06/24 08:38:32;;;;;;;0.68;0.68;;;25.90;92.10;;;;;;5049573;28;20044;-73
2021/06/24 08:40:59;;;;;;;0.55;0.55;;;25.70;92.40;;;;;;5043584;28;20108;-69
2021/06/24 08:43:25;;;;;;;1.08;0.90;;;25.90;92.10;;;;;;5030986;28;20083;-69
2021/06/24 08:45:50;;;;;;;1.08;0.90;;;26.80;91.70;;;;;;5030492;28;20033;-73
2021/06/24 08:48:18;;;;;;;7.40;6.47;;;27.60;91.60;;;;;;5033845;28;20051;-69
2021/06/24 08:50:50;;;;;;;1.50;0.95;;;28.30;90.60;;;;;;5017689;28;20120;-69
2021/06/24 08:53:20;;;;;;;0.80;0.80;;;27.50;91.10;;;;;;5039088;28;20164;-70
2021/06/24 08:55:47;;;;;;;1.65;1.17;;;26.80;91.20;;;;;;5030267;28;20039;-70
2021/06/24 08:58:13;;;;;;;1.48;0.70;;;26.30;91.40;;;;;;5037404;28;20029;-71
2021/06/24 09:00:39;;;;;;;0.80;0.80;;;27.00;90.40;;;;;;5036366;28;20017;-71
2021/06/24 09:03:18;;;;;;;0.90;0.90;;;26.60;90.40;;;;;;5049521;28;20055;-70
2021/06/24 09:05:52;;;;;;;1.13;0.77;;;26.00;90.20;;;;;;5049906;28;20083;-70
2021/06/24 09:08:38;;;;;;;1.60;1.30;;;25.30;89.10;;;;;;5031435;28;20059;-70
2021/06/24 09:11:07;;;;;;;0.88;0.88;;;24.40;90.30;;;;;;5032562;28;20062;-70
2021/06/24 09:13:33;;;;;;;0.73;0.73;;;23.80;91.40;;;;;;5038444;28;20032;-69
2021/06/24 09:16:23;;;;;;;2.63;0.90;;;23.40;92.10;;;;;;5046370;28;20017;-69
2021/06/24 09:18:49;;;;;;;0.75;0.75;;;23.10;92.40;;;;;;5027732;28;20041;-70
2021/06/24 09:21:25;;;;;;;0.80;0.80;;;23.50;92.70;;;;;;5046206;28;20021;-70
2021/06/24 09:23:52;;;;;;;1.00;0.73;;;23.40;92.10;;;;;;5050416;28;20029;-69
2021/06/24 09:26:19;;;;;;;1.52;0.82;;;24.50;91.80;;;;;;5047337;28;20543;-70
2021/06/24 09:28:49;;;;;;;1.00;0.93;;;26.40;90.10;;;;;;5020327;28;20553;-70
2021/06/24 09:31:28;;;;;;;1.10;0.77;;;28.00;87.10;;;;;;5047767;28;20024;-69
2021/06/24 09:33:56;;;;;;;0.75;0.73;;;29.30;85.20;;;;;;5041315;28;20037;-70
2021/06/24 09:36:41;;;;;;;0.88;0.80;;;29.10;85.20;;;;;;5025212;28;20384;-69
2021/06/24 09:39:11;;;;;;;0.60;0.60;;;29.90;83.10;;;;;;5046656;28;20040;-69
2021/06/24 09:41:54;;;;;;;1.25;0.65;;;29.60;80.00;;;;;;5021628;28;20031;-70
2021/06/24 09:44:22;;;;;;;0.40;0.40;;;30.10;78.30;;;;;;5030241;28;20026;-69
2021/06/24 09:46:47;;;;;;;2.08;0.60;;;30.80;76.60;;;;;;5046600;28;20083;-69
2021/06/24 09:49:32;;;;;;;0.50;0.50;;;31.50;75.00;;;;;;5046667;28;20017;-69
2021/06/24 09:51:59;;;;;;;1.60;0.60;;;32.10;73.90;;;;;;5045282;28;20474;-69
2021/06/24 09:54:33;;;;;;;2.00;0.60;;;32.50;72.80;;;;;;5043087;28;20021;-70
2021/06/24 09:56:58;;;;;;;0.50;0.50;;;32.90;70.90;;;;;;5048058;28;20025;-70
2021/06/24 09:59:34;;;;;;;0.95;0.60;;;32.20;70.30;;;;;;5035547;28;20039;-69
2021/06/24 10:02:11;;;;;;;1.00;0.60;;;30.60;70.80;;;;;;5044431;28;20524;-69
2021/06/24 10:04:39;;;;;;;1.55;0.55;;;29.80;71.00;;;;;;5043652;28;20032;-70
2021/06/24 10:07:09;;;;;;;2.55;0.50;;;30.10;71.70;;;;;;5047126;28;20038;-70
2021/06/24 10:09:38;;;;;;;2.72;0.52;;;29.50;72.00;;;;;;5040673;28;20021;-69
2021/06/24 10:12:04;;;;;;;0.60;0.40;;;29.00;73.40;;;;;;5049886;28;20494;-69
2021/06/24 10:14:30;;;;;;;0.38;0.38;;;28.80;73.50;;;;;;5032114;28;20026;-69
2021/06/24 10:16:58;;;;;;;0.30;0.30;;;28.80;73.90;;;;;;5041412;28;20059;-69
2021/06/24 10:19:44;;;;;;;0.40;0.40;;;28.40;74.60;;;;;;5034823;28;20029;-70
2021/06/24 10:22:19;;;;;;;0.90;0.43;;;28.30;74.40;;;;;;5035776;28;20037;-70
2021/06/24 10:24:56;;;;;;;1.75;0.45;;;28.30;73.00;;;;;;5035133;28;20032;-68
2021/06/24 10:27:30;;;;;;;0.40;0.40;;;28.10;74.40;;;;;;5044215;28;20115;-69
2021/06/24 10:29:55;;;;;;;0.82;0.50;;;28.10;73.70;;;;;;5035823;28;20099;-69
2021/06/24 10:32:34;;;;;;;0.40;0.40;;;27.80;73.80;;;;;;5052880;28;20460;-69
2021/06/24 10:35:03;;;;;;;0.60;0.60;;;27.70;73.60;;;;;;5045600;28;20017;-68
2021/06/24 10:37:29;;;;;;;1.20;0.63;;;27.60;74.90;;;;;;5053842;28;20021;-69
2021/06/24 10:40:00;;;;;;;0.45;0.45;;;27.50;73.90;;;;;;5035421;28;20108;-69
2021/06/24 10:42:33;;;;;;;0.68;0.50;;;27.50;75.20;;;;;;5035842;28;20017;-69
2021/06/24 10:45:01;;;;;;;0.55;0.50;;;27.60;74.80;;;;;;5042247;28;20025;-70
2021/06/24 10:47:37;;;;;;;2.13;0.77;;;27.30;75.10;;;;;;5050479;28;20029;-70
2021/06/24 10:50:32;;;;;;;0.70;0.70;;;27.00;74.50;;;;;;5051563;28;20029;-69
2021/06/24 10:53:03;;;;;;;2.75;0.52;;;26.70;75.40;;;;;;5034385;28;20099;-69
2021/06/24 10:55:40;;;;;;;;;;;26.50;75.20;;;;;;5034226;28;20428;-69
2021/06/24 10:58:11;;;;;;;0.88;0.50;;;26.60;78.40;;;;;;5051606;28;19915;-69
2021/06/24 11:00:37;;;;;;;1.92;0.77;;;26.50;77.10;;;;;;5035168;28;20068;-70
2021/06/24 11:03:05;;;;;;;0.63;0.50;;;26.60;77.60;;;;;;5052440;28;20087;-69
2021/06/24 11:05:45;;;;;;;0.50;0.50;;;26.60;77.70;;;;;;5051597;28;20044;-69
2021/06/24 11:08:14;;;;;;;1.95;0.60;;;26.70;76.90;;;;;;5044015;28;20037;-69
2021/06/24 11:10:51;;;;;;;0.98;0.80;;;26.70;77.00;;;;;;5052884;28;20028;-69
2021/06/24 11:13:41;;;;;;;0.70;0.70;;;26.60;75.80;;;;;;5023222;28;20051;-69
2021/06/24 11:16:10;;;;;;;0.70;0.70;;;26.50;76.30;;;;;;5015836;28;20025;-69
2021/06/24 11:18:38;;;;;;;2.17;0.68;;;26.30;76.00;;;;;;5031431;28;20493;-69
2021/06/24 11:21:03;;;;;;;0.60;0.60;;;26.10;76.40;;;;;;5047383;28;20021;-70
2021/06/24 11:23:44;;;;;;;1.35;0.60;;;25.90;76.60;;;;;;5022898;28;20218;-69
2021/06/24 11:26:12;;;;;;;0.68;0.65;;;25.80;75.60;;;;;;5045483;28;20066;-69
2021/06/24 11:28:55;;;;;;;0.57;0.57;;;25.60;76.50;;;;;;5046552;28;20076;-69
2021/06/24 11:31:50;;;;;;;1.63;0.65;;;25.60;76.30;;;;;;5049723;28;20031;-68
2021/06/24 11:34:34;;;;;;;0.80;0.80;;;25.50;76.10;;;;;;5052135;28;20029;-69
2021/06/24 11:37:06;;;;;;;3.08;0.60;;;25.30;76.60;;;;;;5033520;28;20021;-69
2021/06/24 11:39:37;;;;;;;0.75;0.70;;;25.20;77.40;;;;;;5031967;28;20488;-69
2021/06/24 11:42:06;;;;;;;2.03;0.75;;;25.20;76.90;;;;;;5050170;28;20191;-69
2021/06/24 11:44:38;;;;;;;1.70;0.70;;;25.10;77.20;;;;;;5050272;28;20092;-69
2021/06/24 11:47:12;;;;;;;0.68;0.57;;;25.10;77.40;;;;;;5051615;28;20032;-69
2021/06/24 12:03:48;;;;;;;1.02;0.73;;;25.30;76.70;;;;;;5052134;28;20032;-69
2021/06/24 12:06:14;;;;;;;1.27;0.70;;;25.20;77.00;;;;;;5033139;28;20057;-69
2021/06/24 12:08:40;;;;;;;1.67;1.58;;;25.20;76.60;;;;;;5051825;28;20433;-68
2021/06/24 12:11:11;;;;;;;1.77;0.75;;;25.00;76.50;;;;;;5033861;28;20112;-69
2021/06/24 12:13:41;;;;;;;1.33;0.85;;;24.90;77.00;;;;;;5051727;28;20033;-69
2021/06/24 12:16:10;;;;;;;0.60;0.60;;;24.80;76.40;;;;;;5042386;28;20486;-69
2021/06/24 12:18:41;;;;;;;4.00;1.48;;;24.60;74.90;;;;;;5035817;28;20033;-69
2021/06/24 12:21:12;;;;;;;0.90;0.90;;;24.40;79.10;;;;;;5050248;28;20029;-69
2021/06/24 12:23:47;;;;;;;0.90;0.90;;;24.20;81.50;;;;;;5038894;28;20025;-68
2021/06/24 12:26:15;;;;;;;0.70;0.70;;;24.20;82.30;;;;;;5028385;28;20036;-71
2021/06/24 12:28:42;;;;;;;0.90;0.75;;;24.10;81.20;;;;;;5047206;28;20095;-69
2021/06/24 12:31:18;;;;;;;0.80;0.80;;;24.00;80.40;;;;;;5032923;28;20111;-69
2021/06/24 12:33:45;;;;;;;0.93;0.70;;;24.00;79.90;;;;;;5033561;28;20083;-69
2021/06/24 12:36:10;;;;;;;0.70;0.70;;;24.00;80.40;;;;;;5050409;28;20048;-69
2021/06/24 12:38:42;;;;;;;1.15;0.82;;;24.00;80.00;;;;;;5051354;28;20021;-69
2021/06/24 12:41:10;;;;;;;0.73;0.70;;;24.00;80.10;;;;;;5050906;28;20038;-69
2021/06/24 12:43:37;;;;;;;2.40;0.70;;;24.00;79.30;;;;;;5030653;28;20079;-69
2021/06/24 12:46:06;;;;;;;2.95;0.90;;;23.90;78.10;;;;;;5030315;28;20047;-69
2021/06/24 12:48:37;;;;;;;4.57;2.85;;;23.80;77.80;;;;;;5031239;28;20032;-69
2021/06/24 12:51:17;;;;;;;0.90;0.90;;;23.80;78.60;;;;;;5013777;28;20040;-69
2021/06/24 12:53:45;;;;;;;2.15;0.90;;;23.90;79.00;;;;;;5032084;28;20121;-69
2021/06/24 12:56:22;;;;;;;0.75;0.75;;;24.00;79.10;;;;;;5030153;28;20048;-69
2021/06/24 12:58:48;;;;;;;0.73;0.57;;;24.10;77.20;;;;;;5049953;28;20420;-69
2021/06/24 13:01:18;;;;;;;0.80;0.80;;;24.10;77.30;;;;;;5032944;28;20021;-69
2021/06/24 13:03:44;;;;;;;0.80;0.80;;;24.00;76.80;;;;;;5050520;28;20082;-69
2021/06/24 13:06:27;;;;;;;0.80;0.75;;;23.90;76.50;;;;;;5050061;28;20092;-69
2021/06/24 13:09:14;;;;;;;1.23;0.65;;;23.80;76.30;;;;;;5050431;28;20044;-70